createdAt,value
2023-03-03T00:02:39.704Z,15.95
2023-03-03T00:05:27.531Z,16.00
2023-03-03T00:08:14.123Z,15.10
2023-03-03T00:11:03.254Z,14.18
2023-03-03T00:13:52.657Z,14.50
2023-03-03T00:16:39.736Z,15.02
2023-03-03T00:19:26.446Z,13.65
2023-03-03T00:22:27.022Z,14.38
2023-03-03T00:25:29.845Z,12.32
2023-03-03T00:28:28.401Z,12.63
2023-03-03T00:31:18.635Z,12.57
2023-03-03T00:34:24.063Z,11.75
2023-03-03T00:37:26.769Z,14.05
2023-03-03T00:40:21.775Z,11.68
2023-03-03T00:43:18.867Z,12.52
2023-03-03T00:46:05.230Z,12.43
2023-03-03T00:48:52.617Z,12.85
2023-03-03T00:51:39.051Z,12.38
2023-03-03T00:54:26.723Z,13.05
2023-03-03T00:57:13.633Z,13.30
2023-03-03T01:00:01.709Z,13.82
2023-03-03T01:02:50.490Z,13.15
2023-03-03T01:05:37.710Z,13.93
2023-03-03T01:08:24.578Z,14.05
2023-03-03T01:11:16.242Z,14.15
2023-03-03T01:14:02.923Z,14.05
2023-03-03T01:16:50.216Z,14.43
2023-03-03T01:19:37.635Z,15.50
2023-03-03T01:22:24.013Z,16.02
2023-03-03T01:25:11.570Z,15.82
2023-03-03T01:27:59.767Z,16.15
2023-03-03T01:30:46.197Z,16.17
2023-03-03T01:33:33.204Z,15.82
2023-03-03T01:36:24.391Z,16.10
2023-03-03T01:39:11.567Z,15.68
2023-03-03T01:41:57.767Z,15.82
2023-03-03T01:44:45.844Z,16.75
2023-03-03T01:47:35.199Z,15.13
2023-03-03T01:50:33.667Z,15.63
2023-03-03T01:53:24.644Z,15.90
2023-03-03T01:56:11.488Z,16.08
2023-03-03T01:59:02.700Z,16.23
2023-03-03T02:01:51.362Z,17.33
2023-03-03T02:04:38.162Z,17.33
2023-03-03T02:07:29.084Z,17.88
2023-03-03T02:10:18.362Z,16.70
2023-03-03T02:13:04.833Z,17.92
2023-03-03T02:15:51.472Z,16.58
2023-03-03T02:18:39.369Z,17.08
2023-03-03T02:21:27.719Z,17.80
2023-03-03T02:24:19.075Z,17.38
2023-03-03T02:27:08.101Z,17.85
2023-03-03T02:29:54.709Z,18.35
2023-03-03T02:32:41.231Z,17.70
2023-03-03T02:35:34.589Z,17.85
2023-03-03T02:38:26.780Z,18.33
2023-03-03T02:41:22.865Z,18.90
2023-03-03T02:44:13.364Z,19.08
2023-03-03T02:47:00.972Z,18.10
2023-03-03T02:49:47.470Z,18.48
2023-03-03T02:52:33.954Z,19.25
2023-03-03T02:55:20.669Z,18.80
2023-03-03T02:58:07.278Z,18.75
2023-03-03T03:00:55.527Z,18.38
2023-03-03T03:03:42.824Z,18.90
2023-03-03T03:06:30.182Z,19.38
2023-03-03T03:09:18.267Z,17.65
2023-03-03T03:12:06.771Z,19.05
2023-03-03T03:14:54.906Z,15.98
2023-03-03T03:17:43.550Z,17.83
2023-03-03T03:20:30.953Z,17.80
2023-03-03T03:23:18.180Z,15.85
2023-03-03T03:26:05.027Z,16.13
2023-03-03T03:28:52.582Z,16.77
2023-03-03T03:31:39.345Z,16.10
2023-03-03T03:34:27.453Z,17.20
2023-03-03T03:37:17.053Z,17.42
2023-03-03T03:40:06.840Z,17.75
2023-03-03T03:42:53.847Z,17.67
2023-03-03T03:45:40.657Z,18.23
2023-03-03T03:48:27.687Z,19.13
2023-03-03T03:51:16.561Z,18.80
2023-03-03T03:54:03.135Z,19.48
2023-03-03T03:56:49.788Z,18.65
2023-03-03T03:59:36.447Z,19.08
2023-03-03T04:02:23.849Z,18.52
2023-03-03T04:05:10.825Z,18.98
2023-03-03T04:07:59.155Z,17.83
2023-03-03T04:10:45.776Z,19.13
2023-03-03T04:13:35.135Z,18.58
2023-03-03T04:16:22.959Z,17.75
2023-03-03T04:19:10.262Z,18.42
2023-03-03T04:21:58.102Z,18.05
2023-03-03T04:24:48.547Z,16.02
2023-03-03T04:27:37.881Z,17.95
2023-03-03T04:30:24.900Z,16.98
2023-03-03T04:33:14.168Z,16.15
2023-03-03T04:36:01.286Z,17.75
2023-03-03T04:38:49.093Z,19.05
2023-03-03T04:41:37.250Z,18.20
2023-03-03T04:44:24.167Z,18.88
2023-03-03T04:47:11.707Z,18.83
2023-03-03T04:49:58.311Z,19.38
2023-03-03T04:52:45.015Z,20.42
2023-03-03T04:55:33.067Z,19.85
2023-03-03T04:58:21.718Z,17.23
2023-03-03T05:01:08.156Z,19.10
2023-03-03T05:03:54.950Z,19.75
2023-03-03T05:06:42.309Z,18.63
2023-03-03T05:09:29.035Z,18.67
2023-03-03T05:12:15.111Z,18.00
2023-03-03T05:15:02.911Z,17.15
2023-03-03T05:17:49.056Z,17.50
2023-03-03T05:20:35.624Z,17.63
2023-03-03T05:23:23.321Z,16.83
2023-03-03T05:26:09.441Z,17.73
2023-03-03T05:28:56.059Z,15.23
2023-03-03T05:31:45.564Z,16.83
2023-03-03T05:34:32.196Z,16.00
2023-03-03T05:37:18.760Z,15.57
2023-03-03T05:40:06.759Z,15.18
2023-03-03T05:42:53.531Z,15.35
2023-03-03T05:45:40.037Z,14.98
2023-03-03T05:48:27.758Z,14.43
2023-03-03T05:51:14.268Z,14.20
2023-03-03T05:54:00.713Z,14.52
2023-03-03T05:56:47.280Z,14.13
2023-03-03T05:59:33.657Z,13.93
2023-03-03T06:02:20.094Z,13.38
2023-03-03T06:05:09.397Z,15.02
2023-03-03T06:07:55.852Z,14.50
2023-03-03T06:10:42.326Z,13.80
2023-03-03T06:13:30.910Z,14.73
2023-03-03T06:16:18.131Z,14.27
2023-03-03T06:19:04.462Z,14.43
2023-03-03T06:21:52.090Z,14.65
2023-03-03T06:24:38.688Z,13.48
2023-03-03T06:27:24.851Z,13.60
2023-03-03T06:30:12.932Z,14.02
2023-03-03T06:32:59.638Z,13.68
2023-03-03T06:35:46.275Z,14.15
2023-03-03T06:38:33.954Z,14.68
2023-03-03T06:41:20.521Z,13.57
2023-03-03T06:44:07.742Z,12.98
2023-03-03T06:46:57.236Z,13.95
2023-03-03T06:49:44.017Z,13.48
2023-03-03T06:52:30.444Z,14.25
2023-03-03T06:55:24.410Z,13.27
2023-03-03T06:58:14.289Z,12.23
2023-03-03T07:01:02.299Z,11.90
2023-03-03T07:03:48.855Z,13.32
2023-03-03T07:06:35.889Z,14.15
2023-03-03T07:09:25.028Z,13.27
2023-03-03T07:12:16.537Z,12.93
2023-03-03T07:15:15.898Z,13.15
2023-03-03T07:18:03.191Z,11.93
2023-03-03T07:20:49.709Z,13.20
2023-03-03T07:23:42.629Z,11.75
2023-03-03T07:26:32.813Z,12.13
2023-03-03T07:29:25.889Z,11.88
2023-03-03T07:32:25.854Z,13.45
2023-03-03T07:35:30.648Z,13.05
2023-03-03T07:38:26.450Z,11.35
2023-03-03T07:41:20.855Z,12.20
2023-03-03T07:44:13.381Z,12.07
2023-03-03T07:47:13.712Z,11.55
2023-03-03T07:50:09.012Z,11.50
2023-03-03T07:52:57.981Z,10.70
2023-03-03T07:55:45.716Z,11.43
2023-03-03T07:58:39.613Z,11.40
2023-03-03T08:01:42.582Z,11.07
2023-03-03T08:04:40.283Z,11.55
2023-03-03T08:07:27.268Z,12.48
2023-03-03T08:10:35.937Z,11.60
2023-03-03T08:13:24.496Z,10.82
2023-03-03T08:16:31.148Z,10.77
2023-03-03T08:19:18.911Z,10.60
2023-03-03T08:22:15.888Z,11.20
2023-03-03T08:25:02.646Z,10.18
2023-03-03T08:27:48.921Z,10.73
2023-03-03T08:30:35.585Z,11.20
2023-03-03T08:33:22.077Z,11.25
2023-03-03T08:36:09.200Z,11.30
2023-03-03T08:38:56.842Z,10.60
2023-03-03T08:41:44.346Z,11.13
2023-03-03T08:44:30.825Z,11.10
2023-03-03T08:47:17.325Z,9.88
2023-03-03T08:50:03.888Z,10.20
2023-03-03T08:52:50.079Z,10.50
2023-03-03T08:55:38.140Z,9.38
2023-03-03T08:58:34.720Z,9.98
2023-03-03T09:01:22.349Z,10.60
2023-03-03T09:04:08.796Z,9.75
2023-03-03T09:06:55.337Z,9.52
2023-03-03T09:09:41.713Z,9.88
2023-03-03T09:12:34.409Z,9.95
2023-03-03T09:15:23.771Z,9.95
2023-03-03T09:18:16.576Z,9.57
2023-03-03T09:21:03.056Z,9.82
2023-03-03T09:23:56.113Z,9.25
2023-03-03T09:26:47.441Z,9.07
2023-03-03T09:29:38.314Z,8.63
2023-03-03T09:32:34.787Z,8.63
2023-03-03T09:35:38.776Z,9.00
2023-03-03T09:38:30.968Z,8.68
2023-03-03T09:41:31.551Z,7.90
2023-03-03T09:44:42.974Z,8.02
2023-03-03T09:47:39.440Z,8.00
2023-03-03T09:50:37.645Z,8.68
2023-03-03T09:53:39.617Z,7.18
2023-03-03T09:56:33.825Z,6.68
2023-03-03T09:59:34.172Z,8.13
2023-03-03T10:02:39.345Z,7.10
2023-03-03T10:05:46.392Z,7.63
2023-03-03T10:08:54.766Z,7.13
2023-03-03T10:11:49.234Z,5.50
2023-03-03T10:14:59.704Z,6.53
2023-03-03T10:17:52.272Z,6.15
2023-03-03T10:20:54.329Z,6.30
2023-03-03T10:23:57.657Z,5.95
2023-03-03T10:27:14.282Z,6.38
2023-03-03T10:30:11.967Z,5.60
2023-03-03T10:33:05.464Z,5.50
2023-03-03T10:36:25.185Z,5.93
2023-03-03T10:39:39.684Z,5.30
2023-03-03T10:42:45.173Z,5.43
2023-03-03T10:45:55.719Z,5.05
2023-03-03T10:49:09.994Z,4.30
2023-03-03T10:52:20.369Z,4.10
2023-03-03T10:55:21.366Z,3.58
2023-03-03T10:58:32.311Z,3.88
2023-03-03T11:01:27.821Z,4.38
2023-03-03T11:04:38.115Z,3.63
2023-03-03T11:07:30.033Z,3.65
2023-03-03T11:10:25.501Z,3.15
2023-03-03T11:13:20.968Z,2.88
2023-03-03T11:16:41.477Z,2.85
2023-03-03T11:19:53.857Z,3.30
2023-03-03T11:22:48.012Z,3.08
2023-03-03T11:25:40.174Z,2.78
2023-03-03T11:28:38.658Z,2.65
2023-03-03T11:31:32.461Z,2.97
2023-03-03T11:34:41.133Z,2.80
2023-03-03T11:37:38.357Z,3.08
2023-03-03T11:40:28.781Z,3.30
2023-03-03T11:43:35.415Z,2.88
2023-03-03T11:46:27.615Z,2.78
2023-03-03T11:49:22.703Z,2.33
2023-03-03T11:52:25.259Z,1.67
2023-03-03T11:55:18.594Z,2.13
2023-03-03T11:58:13.776Z,1.80
2023-03-03T12:01:09.544Z,1.83
2023-03-03T12:04:00.929Z,1.67
2023-03-03T12:07:12.994Z,1.70
2023-03-03T12:10:14.866Z,1.55
2023-03-03T12:13:07.495Z,1.42
2023-03-03T12:16:02.656Z,1.50
2023-03-03T12:19:04.025Z,1.50
2023-03-03T12:22:06.557Z,2.15
2023-03-03T12:25:06.169Z,2.08
2023-03-03T12:27:59.588Z,1.50
2023-03-03T12:31:23.687Z,1.38
2023-03-03T12:34:17.767Z,0.88
2023-03-03T12:37:19.412Z,0.93
2023-03-03T12:40:13.197Z,1.15
2023-03-03T12:43:13.809Z,1.17
2023-03-03T12:46:07.955Z,0.82
2023-03-03T12:48:55.830Z,0.90
2023-03-03T12:52:01.211Z,1.20
2023-03-03T12:55:09.455Z,1.38
2023-03-03T12:58:05.222Z,1.10
2023-03-03T13:01:01.303Z,1.20
2023-03-03T13:04:00.247Z,1.38
2023-03-03T13:06:52.182Z,1.00
2023-03-03T13:09:55.789Z,1.30
2023-03-03T13:12:46.361Z,1.08
2023-03-03T13:18:37.239Z,1.27
2023-03-03T13:21:31.915Z,0.98
2023-03-03T13:24:23.536Z,0.88
2023-03-03T13:27:14.006Z,0.80
2023-03-03T13:30:03.660Z,1.00
2023-03-03T13:32:55.940Z,0.80
2023-03-03T13:35:47.360Z,0.60
2023-03-03T13:38:42.540Z,0.90
2023-03-03T13:41:34.823Z,1.00
2023-03-03T13:44:26.600Z,0.80
2023-03-03T13:47:18.524Z,1.20
2023-03-03T13:50:18.421Z,1.38
2023-03-03T13:53:26.854Z,1.00
2023-03-03T13:56:28.371Z,1.40
2023-03-03T13:59:25.864Z,1.45
2023-03-03T14:02:32.893Z,1.27
2023-03-03T14:05:27.776Z,1.00
2023-03-03T14:08:27.320Z,1.33
2023-03-03T14:11:24.873Z,1.00
2023-03-03T14:14:23.299Z,1.13
2023-03-03T14:17:16.867Z,1.33
2023-03-03T14:20:16.647Z,1.40
2023-03-03T14:23:04.597Z,1.42
2023-03-03T14:25:54.462Z,1.60
2023-03-03T14:28:45.309Z,0.85
2023-03-03T14:31:40.871Z,1.02
2023-03-03T14:34:37.141Z,0.82
2023-03-03T14:37:26.234Z,0.45
2023-03-03T14:40:20.478Z,0.88
2023-03-03T14:43:22.842Z,0.90
2023-03-03T14:46:37.077Z,0.60
2023-03-03T14:49:31.678Z,0.70
2023-03-03T14:52:24.857Z,0.77
2023-03-03T14:55:34.048Z,0.75
2023-03-03T14:58:30.235Z,1.20
2023-03-03T15:01:23.043Z,0.93
2023-03-03T15:04:25.724Z,0.88
2023-03-03T15:07:28.757Z,0.88
2023-03-03T15:10:32.228Z,0.80
2023-03-03T15:13:34.623Z,0.80
2023-03-03T15:16:23.755Z,0.77
2023-03-03T15:19:45.859Z,0.57
2023-03-03T15:22:55.657Z,0.73
2023-03-03T15:25:53.762Z,0.63
2023-03-03T15:28:55.461Z,0.63
2023-03-03T15:31:50.341Z,0.60
2023-03-03T15:34:44.275Z,1.02
2023-03-03T15:37:44.503Z,0.80
2023-03-03T15:43:27.950Z,0.65
2023-03-03T15:46:27.111Z,0.93
2023-03-03T15:49:21.093Z,0.75
2023-03-03T15:52:25.423Z,0.80
2023-03-03T15:55:28.958Z,1.20
2023-03-03T15:58:41.242Z,2.78
2023-03-03T16:01:30.723Z,1.00
2023-03-03T16:04:20.807Z,1.00
2023-03-03T16:07:16.759Z,0.80
2023-03-03T16:10:13.984Z,0.90
2023-03-03T16:13:20.042Z,0.98
2023-03-03T16:16:19.054Z,0.70
2023-03-03T16:19:19.015Z,1.45
2023-03-03T16:22:27.349Z,0.60
2023-03-03T16:25:28.019Z,0.70
2023-03-03T16:28:22.110Z,0.80
2023-03-03T16:31:13.562Z,0.90
2023-03-03T16:34:07.111Z,1.23
2023-03-03T16:37:03.708Z,0.77
2023-03-03T16:39:56.474Z,0.88
2023-03-03T16:42:42.535Z,0.70
2023-03-03T16:45:34.464Z,1.05
2023-03-03T16:48:32.303Z,0.95
2023-03-03T16:51:30.651Z,1.17
2023-03-03T16:54:23.494Z,1.95
2023-03-03T16:57:17.869Z,1.63
2023-03-03T17:00:10.507Z,2.13
2023-03-03T17:03:14.799Z,1.58
2023-03-03T17:06:07.171Z,1.30
2023-03-03T17:09:30.301Z,1.40
2023-03-03T17:12:36.069Z,1.52
2023-03-03T17:15:34.789Z,1.20
2023-03-03T17:18:32.270Z,1.90
2023-03-03T17:21:29.722Z,1.75
2023-03-03T17:24:25.623Z,1.83
2023-03-03T17:27:18.568Z,2.40
2023-03-03T17:30:15.536Z,1.55
2023-03-03T17:33:25.713Z,1.50
2023-03-03T17:36:28.533Z,1.50
2023-03-03T17:39:34.121Z,1.42
2023-03-03T17:42:26.338Z,1.40
2023-03-03T17:45:15.541Z,1.55
2023-03-03T17:48:14.837Z,1.77
2023-03-03T17:51:23.862Z,1.65
2023-03-03T17:54:28.196Z,1.85
2023-03-03T17:57:30.608Z,1.83
2023-03-03T18:00:31.334Z,1.50
2023-03-03T18:03:34.146Z,1.42
2023-03-03T18:06:39.727Z,1.50
2023-03-03T18:09:44.702Z,1.20
2023-03-03T18:12:43.770Z,1.50
2023-03-03T18:16:05.287Z,2.03
2023-03-03T18:19:10.816Z,1.85
2023-03-03T18:22:06.573Z,2.15
2023-03-03T18:24:59.872Z,2.60
2023-03-03T18:27:46.860Z,1.90
2023-03-03T18:30:56.213Z,1.90
2023-03-03T18:33:44.919Z,1.98
2023-03-03T18:36:51.812Z,2.90
2023-03-03T18:39:45.736Z,1.98
2023-03-03T18:42:38.177Z,1.73
2023-03-03T18:45:50.775Z,2.00
2023-03-03T18:48:50.344Z,2.45
2023-03-03T18:52:11.053Z,2.53
2023-03-03T18:55:27.218Z,2.38
2023-03-03T18:58:30.231Z,2.15
2023-03-03T19:01:43.176Z,2.67
2023-03-03T19:04:37.703Z,2.35
2023-03-03T19:07:27.990Z,4.30
2023-03-03T19:10:48.233Z,2.92
2023-03-03T19:13:47.824Z,1.90
2023-03-03T19:16:37.471Z,1.90
2023-03-03T19:19:30.090Z,2.78
2023-03-03T19:22:25.710Z,1.85
2023-03-03T19:25:24.193Z,2.53
2023-03-03T19:28:30.323Z,2.92
2023-03-03T19:31:27.634Z,2.40
2023-03-03T19:34:23.116Z,2.35
2023-03-03T19:37:26.272Z,2.50
2023-03-03T19:40:24.060Z,2.67
2023-03-03T19:43:18.448Z,2.30
2023-03-03T19:46:32.661Z,2.45
2023-03-03T19:49:27.933Z,2.28
2023-03-03T19:52:23.402Z,2.47
2023-03-03T19:55:35.587Z,2.85
2023-03-03T19:58:30.261Z,2.60
2023-03-03T20:01:24.616Z,2.40
2023-03-03T20:04:31.050Z,2.53
2023-03-03T20:07:31.227Z,2.40
2023-03-03T20:13:28.533Z,3.10
2023-03-03T20:16:26.709Z,2.53
2023-03-03T20:19:31.124Z,2.55
2023-03-03T20:22:24.026Z,2.10
2023-03-03T20:25:27.004Z,2.65
2023-03-03T20:28:40.442Z,3.20
2023-03-03T20:31:35.622Z,2.40
2023-03-03T20:34:32.161Z,2.30
2023-03-03T20:37:27.307Z,1.88
2023-03-03T20:40:27.200Z,2.17
2023-03-03T20:43:27.275Z,2.75
2023-03-03T20:46:22.260Z,2.20
2023-03-03T20:49:23.750Z,2.90
2023-03-03T20:52:18.704Z,2.65
2023-03-03T20:55:15.613Z,3.05
2023-03-03T20:58:13.682Z,2.35
2023-03-03T21:01:06.826Z,2.72
2023-03-03T21:03:54.289Z,2.92
2023-03-03T21:06:41.446Z,2.72
2023-03-03T21:09:31.824Z,3.58
2023-03-03T21:12:29.723Z,2.40
2023-03-03T21:15:24.950Z,2.65
2023-03-03T21:18:23.789Z,2.97
2023-03-03T21:21:10.142Z,2.65
2023-03-03T21:23:56.808Z,2.58
2023-03-03T21:26:50.159Z,2.42
2023-03-03T21:29:36.889Z,2.60
2023-03-03T21:32:37.082Z,2.67
2023-03-03T21:35:23.708Z,2.47
2023-03-03T21:38:09.941Z,2.65
2023-03-03T21:41:03.661Z,3.53
2023-03-03T21:43:53.461Z,2.53
2023-03-03T21:46:39.994Z,2.78
2023-03-03T21:49:26.507Z,3.83
2023-03-03T21:52:14.306Z,3.13
2023-03-03T21:55:00.538Z,2.55
2023-03-03T21:57:46.877Z,2.42
2023-03-03T22:00:34.610Z,2.67
2023-03-03T22:03:21.233Z,3.15
2023-03-03T22:06:08.363Z,3.05
2023-03-03T22:08:54.449Z,2.25
2023-03-03T22:11:41.057Z,2.65
2023-03-03T22:14:27.715Z,2.50
2023-03-03T22:17:15.823Z,2.97
2023-03-03T22:20:02.058Z,1.95
2023-03-03T22:22:48.541Z,2.28
2023-03-03T22:25:34.767Z,2.40
2023-03-03T22:28:20.846Z,2.05
2023-03-03T22:31:07.368Z,2.53
2023-03-03T22:33:55.020Z,2.35
2023-03-03T22:36:41.226Z,2.97
2023-03-03T22:39:27.669Z,2.83
2023-03-03T22:42:14.183Z,2.15
2023-03-03T22:45:00.673Z,2.35
2023-03-03T22:47:47.026Z,3.63
2023-03-03T22:50:39.350Z,2.88
2023-03-03T22:53:26.260Z,2.47
2023-03-03T22:56:13.036Z,2.45
2023-03-03T22:58:59.402Z,2.88
2023-03-03T23:01:45.977Z,3.78
2023-03-03T23:04:33.564Z,3.13
2023-03-03T23:07:21.470Z,2.28
2023-03-03T23:10:08.971Z,2.35
2023-03-03T23:12:55.589Z,3.35
2023-03-03T23:15:41.809Z,2.90
2023-03-03T23:18:28.637Z,2.20
2023-03-03T23:21:14.991Z,2.00
2023-03-03T23:24:02.915Z,3.25
2023-03-03T23:26:51.703Z,2.28
2023-03-03T23:29:38.313Z,2.50
2023-03-03T23:32:24.764Z,3.03
2023-03-03T23:35:11.578Z,2.00
2023-03-03T23:37:58.086Z,2.22
2023-03-03T23:40:46.959Z,2.25
2023-03-03T23:43:33.572Z,2.63
2023-03-03T23:46:19.677Z,2.40
2023-03-03T23:49:05.864Z,2.55
2023-03-03T23:51:52.452Z,2.30
2023-03-03T23:54:38.961Z,1.92
2023-03-03T23:57:27.242Z,2.08
